First Ferry Viii — VRS4306 — position and weather

sailwx.info

Track history (hours):
 
Tides and Currents Weather Stations Pressure Air Temp Water Temp Dewpoint Dewpoint Depression Visibility Wind Speed Wind Dir Waves Ship Positions

First Ferry Viii

Last reported at 2017-Apr-26 00:04 UTC. Time now 2017-Apr-28 20:11 UTC.
Position N 22°18' E 114°09'.

Length 40 m; draft 1.8 m.

Type: Ship. MMSI: 477995030.

Date/timePositionNaut miles runAvg speedWind from/ knotsBaromVisibWave heightAir tempDewpointWater temp
2017-Apr-26 00:04N 22°18' E 114°09'0 0.0
2017-Apr-25 16:34N 22°18' E 114°09'0 1.0
2017-Apr-25 16:16N 22°17' E 114°10'0 0.4
2017-Apr-25 15:05N 22°18' E 114°09'0 0.1
2017-Apr-25 13:04N 22°18' E 114°09'0 0.6
2017-Apr-25 12:37N 22°17' E 114°10'0 0.0
2017-Apr-25 09:45N 22°17' E 114°10'0 0.2
2017-Apr-25 07:51N 22°18' E 114°09'0 0.9
2017-Apr-25 07:22N 22°17' E 114°10'0 0.1
2017-Apr-25 05:49N 22°17' E 114°09'0 0.8
2017-Apr-25 05:29N 22°17' E 114°10'1 0.2
2017-Apr-25 01:46N 22°17' E 114°11'1 0.7
2017-Apr-25 00:04N 22°18' E 114°09'0 0.9
2017-Apr-24 23:36N 22°17' E 114°10'0 0.1
2017-Apr-24 16:34N 22°18' E 114°09'0 1.4
2017-Apr-24 16:17N 22°17' E 114°10'0 0.3
2017-Apr-24 15:04N 22°18' E 114°09'0 0.8
2017-Apr-24 14:33N 22°17' E 114°10'1 0.5
2017-Apr-24 13:06N 22°18' E 114°09'1 1.6
2017-Apr-24 12:39N 22°17' E 114°10'1 0.1
2017-Apr-24 07:50N 22°18' E 114°09'0 0.1
2017-Apr-24 05:49N 22°18' E 114°09'0 0.9
2017-Apr-24 05:27N 22°17' E 114°10'1 0.3
2017-Apr-24 02:32N 22°17' E 114°11'013.5
2017-Apr-24 02:30N 22°17' E 114°10'2 2.2
2017-Apr-24 01:47N 22°18' E 114°09'1 0.6
2017-Apr-24 00:04N 22°18' E 114°09'0 1.0
2017-Apr-23 23:45N 22°17' E 114°10'1 0.1
2017-Apr-23 16:38N 22°18' E 114°09'1 1.4
2017-Apr-23 16:10N 22°17' E 114°10'1 0.5
2017-Apr-23 15:05N 22°18' E 114°09'1 1.1
2017-Apr-23 14:34N 22°17' E 114°10'1 0.6
2017-Apr-23 13:07N 22°18' E 114°09'1 1.7
2017-Apr-23 12:36N 22°17' E 114°10'1 0.5
2017-Apr-23 11:06N 22°18' E 114°09'1 1.2
2017-Apr-23 10:28N 22°17' E 114°10'1 0.2
2017-Apr-23 07:07N 22°18' E 114°09'1 2.2
2017-Apr-23 06:49N 22°17' E 114°10'0 0.2
2017-Apr-23 04:57N 22°18' E 114°09'0 0.0
2017-Apr-23 02:56N 22°18' E 114°09'0 0.2
2017-Apr-23 01:06N 22°18' E 114°09'1 2.0
2017-Apr-23 00:42N 22°17' E 114°10'0 1.1
2017-Apr-23 00:30N 22°17' E 114°10'1 0.9
2017-Apr-22 22:51N 22°19' E 114°09'2 5.3
2017-Apr-22 22:31N 22°18' E 114°11'1 0.1
2017-Apr-22 12:52N 22°18' E 114°12'2 1.4
2017-Apr-22 11:08N 22°18' E 114°09'0 1.5
2017-Apr-22 10:50N 22°17' E 114°10'0 0.0
2017-Apr-22 10:30N 22°17' E 114°10'1 0.2
2017-Apr-22 06:40N 22°17' E 114°10'0 1.3
2017-Apr-22 06:30N 22°17' E 114°10'1 0.6
2017-Apr-22 04:46N 22°18' E 114°09'0 1.1
2017-Apr-22 04:20N 22°17' E 114°10'0 0.2
2017-Apr-22 02:46N 22°18' E 114°09'0 1.1
2017-Apr-22 02:25N 22°17' E 114°10'1 1.0
2017-Apr-22 01:35N 22°17' E 114°10'0 0.0
2017-Apr-22 01:19N 22°17' E 114°10'0 0.0
2017-Apr-22 00:55N 22°17' E 114°10'1 2.4
2017-Apr-22 00:30N 22°17' E 114°09'0 0.2
2017-Apr-21 22:52N 22°18' E 114°09'1 0.2
2017-Apr-21 15:01N 22°18' E 114°11'0 5.4
2017-Apr-21 15:00N 22°17' E 114°11'0 0.4
2017-Apr-21 14:05N 22°17' E 114°10'1 0.6
2017-Apr-21 12:20N 22°18' E 114°11'2 1.6
2017-Apr-21 11:05N 22°18' E 114°09'0 1.0
2017-Apr-21 10:36N 22°17' E 114°10'1 0.3
2017-Apr-21 06:30N 22°18' E 114°11'1 0.3
2017-Apr-21 02:49N 22°18' E 114°09'0 0.6
2017-Apr-21 02:24N 22°17' E 114°10'1 0.8
2017-Apr-21 00:43N 22°19' E 114°09'1 5.2
2017-Apr-21 00:29N 22°17' E 114°10'1 0.5
2017-Apr-20 22:52N 22°18' E 114°09'2 0.2
2017-Apr-20 12:18N 22°18' E 114°11'1 0.7
2017-Apr-20 10:32N 22°17' E 114°10'0 6.9
2017-Apr-20 10:30N 22°17' E 114°10'1 0.3
2017-Apr-20 06:40N 22°18' E 114°11'1 4.5
2017-Apr-20 06:23N 22°17' E 114°10'0 0.3
2017-Apr-20 04:48N 22°18' E 114°09'0 0.9
2017-Apr-20 04:21N 22°17' E 114°10'0 0.3
2017-Apr-20 02:52N 22°18' E 114°09'0 0.8
2017-Apr-20 02:16N 22°17' E 114°10'1 0.5
2017-Apr-20 00:41N 22°17' E 114°10'1 4.7
2017-Apr-20 00:30N 22°17' E 114°10'0 0.3
2017-Apr-19 22:51N 22°18' E 114°09'2 0.1
2017-Apr-19 12:17N 22°18' E 114°11'1 1.1
2017-Apr-19 11:04N 22°18' E 114°09'0 0.6
2017-Apr-19 10:30N 22°17' E 114°10'1 0.3
2017-Apr-19 06:33N 22°18' E 114°11'113.8
2017-Apr-19 06:31N 22°17' E 114°10'1 0.5
2017-Apr-19 04:44N 22°18' E 114°09'0 0.6
2017-Apr-19 04:19N 22°17' E 114°10'0 0.2
2017-Apr-19 02:43N 22°18' E 114°09'0 1.6
2017-Apr-19 02:26N 22°17' E 114°10'1 0.5
2017-Apr-19 00:41N 22°18' E 114°09'1 4.0
2017-Apr-19 00:29N 22°17' E 114°10'0 0.2
2017-Apr-18 22:54N 22°18' E 114°09'1 0.1
2017-Apr-18 05:48N 22°17' E 114°11'1 1.1
2017-Apr-18 04:37N 22°18' E 114°09'0 1.2
2017-Apr-18 04:20N 22°17' E 114°10'0 0.2
2017-Apr-18 02:43N 22°18' E 114°09'0 1.5
2017-Apr-18 02:30N 22°17' E 114°10'2 0.9
2017-Apr-18 00:44N 22°19' E 114°09'1 5.9
2017-Apr-18 00:29N 22°17' E 114°10'0 0.3
2017-Apr-17 22:54N 22°18' E 114°09'2 0.2
2017-Apr-17 12:54N 22°18' E 114°12'2 1.1
2017-Apr-17 10:40N 22°18' E 114°09'0 2.4
2017-Apr-17 10:29N 22°17' E 114°10'0 0.2
2017-Apr-17 09:06N 22°18' E 114°09'0 0.7
2017-Apr-17 08:31N 22°17' E 114°10'0 1.2
2017-Apr-17 08:30N 22°17' E 114°10'1 0.7
2017-Apr-17 07:15N 22°18' E 114°09'1 2.4
2017-Apr-17 06:51N 22°17' E 114°10'1 0.8
2017-Apr-17 05:17N 22°17' E 114°11'2 1.3
2017-Apr-17 03:50N 22°18' E 114°09'0 0.2
2017-Apr-17 01:54N 22°18' E 114°09'0 0.2
2017-Apr-17 00:06N 22°18' E 114°09'1 1.4
2017-Apr-16 23:41N 22°17' E 114°10'0 1.5
2017-Apr-16 23:30N 22°17' E 114°10'2 2.9
2017-Apr-16 22:54N 22°19' E 114°09'2 5.1
2017-Apr-16 22:30N 22°18' E 114°11'0 0.0
2017-Apr-16 13:50N 22°18' E 114°11'2 0.7
2017-Apr-16 10:37N 22°18' E 114°09'1 5.8
2017-Apr-16 10:25N 22°17' E 114°10'1 0.7
2017-Apr-16 09:10N 22°18' E 114°09'1 2.7
2017-Apr-16 08:49N 22°17' E 114°10'0 1.3
2017-Apr-16 08:30N 22°17' E 114°10'1 0.5
2017-Apr-16 06:59N 22°18' E 114°09'1 0.5
2017-Apr-16 04:57N 22°17' E 114°10'1 1.1
2017-Apr-16 03:48N 22°18' E 114°09'0 0.1
2017-Apr-16 01:53N 22°18' E 114°09'0 0.1
2017-Apr-16 00:05N 22°18' E 114°09'  
Track history (hours):
 
Tides and Currents Weather Stations Pressure Air Temp Water Temp Dewpoint Dewpoint Depression Visibility Wind Speed Wind Dir Waves Ship Positions

First Ferry Viii

Last reported at 2017-Apr-26 00:04 UTC. Time now 2017-Apr-28 20:11 UTC.
Position N 22°18' E 114°09'.

Length 40 m; draft 1.8 m.

Type: Ship. MMSI: 477995030.

Date/timePositionNaut miles runAvg speedWind from/ knotsBaromVisibWave heightAir tempDewpointWater temp
2017-Apr-26 00:04N 22°18' E 114°09'0 0.0
2017-Apr-25 16:34N 22°18' E 114°09'0 1.0
2017-Apr-25 16:16N 22°17' E 114°10'0 0.4
2017-Apr-25 15:05N 22°18' E 114°09'0 0.1
2017-Apr-25 13:04N 22°18' E 114°09'0 0.6
2017-Apr-25 12:37N 22°17' E 114°10'0 0.0
2017-Apr-25 09:45N 22°17' E 114°10'0 0.2
2017-Apr-25 07:51N 22°18' E 114°09'0 0.9
2017-Apr-25 07:22N 22°17' E 114°10'0 0.1
2017-Apr-25 05:49N 22°17' E 114°09'0 0.8
2017-Apr-25 05:29N 22°17' E 114°10'1 0.2
2017-Apr-25 01:46N 22°17' E 114°11'1 0.7
2017-Apr-25 00:04N 22°18' E 114°09'0 0.9
2017-Apr-24 23:36N 22°17' E 114°10'0 0.1
2017-Apr-24 16:34N 22°18' E 114°09'0 1.4
2017-Apr-24 16:17N 22°17' E 114°10'0 0.3
2017-Apr-24 15:04N 22°18' E 114°09'0 0.8
2017-Apr-24 14:33N 22°17' E 114°10'1 0.5
2017-Apr-24 13:06N 22°18' E 114°09'1 1.6
2017-Apr-24 12:39N 22°17' E 114°10'1 0.1
2017-Apr-24 07:50N 22°18' E 114°09'0 0.1
2017-Apr-24 05:49N 22°18' E 114°09'0 0.9
2017-Apr-24 05:27N 22°17' E 114°10'1 0.3
2017-Apr-24 02:32N 22°17' E 114°11'013.5
2017-Apr-24 02:30N 22°17' E 114°10'2 2.2
2017-Apr-24 01:47N 22°18' E 114°09'1 0.6
2017-Apr-24 00:04N 22°18' E 114°09'0 1.0
2017-Apr-23 23:45N 22°17' E 114°10'1 0.1
2017-Apr-23 16:38N 22°18' E 114°09'1 1.4
2017-Apr-23 16:10N 22°17' E 114°10'1 0.5
2017-Apr-23 15:05N 22°18' E 114°09'1 1.1
2017-Apr-23 14:34N 22°17' E 114°10'1 0.6
2017-Apr-23 13:07N 22°18' E 114°09'1 1.7
2017-Apr-23 12:36N 22°17' E 114°10'1 0.5
2017-Apr-23 11:06N 22°18' E 114°09'1 1.2
2017-Apr-23 10:28N 22°17' E 114°10'1 0.2
2017-Apr-23 07:07N 22°18' E 114°09'1 2.2
2017-Apr-23 06:49N 22°17' E 114°10'0 0.2
2017-Apr-23 04:57N 22°18' E 114°09'0 0.0
2017-Apr-23 02:56N 22°18' E 114°09'0 0.2
2017-Apr-23 01:06N 22°18' E 114°09'1 2.0
2017-Apr-23 00:42N 22°17' E 114°10'0 1.1
2017-Apr-23 00:30N 22°17' E 114°10'1 0.9
2017-Apr-22 22:51N 22°19' E 114°09'2 5.3
2017-Apr-22 22:31N 22°18' E 114°11'1 0.1
2017-Apr-22 12:52N 22°18' E 114°12'2 1.4
2017-Apr-22 11:08N 22°18' E 114°09'0 1.5
2017-Apr-22 10:50N 22°17' E 114°10'0 0.0
2017-Apr-22 10:30N 22°17' E 114°10'1 0.2
2017-Apr-22 06:40N 22°17' E 114°10'0 1.3
2017-Apr-22 06:30N 22°17' E 114°10'1 0.6
2017-Apr-22 04:46N 22°18' E 114°09'0 1.1
2017-Apr-22 04:20N 22°17' E 114°10'0 0.2
2017-Apr-22 02:46N 22°18' E 114°09'0 1.1
2017-Apr-22 02:25N 22°17' E 114°10'1 1.0
2017-Apr-22 01:35N 22°17' E 114°10'0 0.0
2017-Apr-22 01:19N 22°17' E 114°10'0 0.0
2017-Apr-22 00:55N 22°17' E 114°10'1 2.4
2017-Apr-22 00:30N 22°17' E 114°09'0 0.2
2017-Apr-21 22:52N 22°18' E 114°09'1 0.2
2017-Apr-21 15:01N 22°18' E 114°11'0 5.4
2017-Apr-21 15:00N 22°17' E 114°11'0 0.4
2017-Apr-21 14:05N 22°17' E 114°10'1 0.6
2017-Apr-21 12:20N 22°18' E 114°11'2 1.6
2017-Apr-21 11:05N 22°18' E 114°09'0 1.0
2017-Apr-21 10:36N 22°17' E 114°10'1 0.3
2017-Apr-21 06:30N 22°18' E 114°11'1 0.3
2017-Apr-21 02:49N 22°18' E 114°09'0 0.6
2017-Apr-21 02:24N 22°17' E 114°10'1 0.8
2017-Apr-21 00:43N 22°19' E 114°09'1 5.2
2017-Apr-21 00:29N 22°17' E 114°10'1 0.5
2017-Apr-20 22:52N 22°18' E 114°09'2 0.2
2017-Apr-20 12:18N 22°18' E 114°11'1 0.7
2017-Apr-20 10:32N 22°17' E 114°10'0 6.9
2017-Apr-20 10:30N 22°17' E 114°10'1 0.3
2017-Apr-20 06:40N 22°18' E 114°11'1 4.5
2017-Apr-20 06:23N 22°17' E 114°10'0 0.3
2017-Apr-20 04:48N 22°18' E 114°09'0 0.9
2017-Apr-20 04:21N 22°17' E 114°10'0 0.3
2017-Apr-20 02:52N 22°18' E 114°09'0 0.8
2017-Apr-20 02:16N 22°17' E 114°10'1 0.5
2017-Apr-20 00:41N 22°17' E 114°10'1 4.7
2017-Apr-20 00:30N 22°17' E 114°10'0 0.3
2017-Apr-19 22:51N 22°18' E 114°09'2 0.1
2017-Apr-19 12:17N 22°18' E 114°11'1 1.1
2017-Apr-19 11:04N 22°18' E 114°09'0 0.6
2017-Apr-19 10:30N 22°17' E 114°10'1 0.3
2017-Apr-19 06:33N 22°18' E 114°11'113.8
2017-Apr-19 06:31N 22°17' E 114°10'1 0.5
2017-Apr-19 04:44N 22°18' E 114°09'0 0.6
2017-Apr-19 04:19N 22°17' E 114°10'0 0.2
2017-Apr-19 02:43N 22°18' E 114°09'0 1.6
2017-Apr-19 02:26N 22°17' E 114°10'1 0.5
2017-Apr-19 00:41N 22°18' E 114°09'1 4.0
2017-Apr-19 00:29N 22°17' E 114°10'0 0.2
2017-Apr-18 22:54N 22°18' E 114°09'1 0.1
2017-Apr-18 05:48N 22°17' E 114°11'1 1.1
2017-Apr-18 04:37N 22°18' E 114°09'0 1.2
2017-Apr-18 04:20N 22°17' E 114°10'0 0.2
2017-Apr-18 02:43N 22°18' E 114°09'0 1.5
2017-Apr-18 02:30N 22°17' E 114°10'2 0.9
2017-Apr-18 00:44N 22°19' E 114°09'1 5.9
2017-Apr-18 00:29N 22°17' E 114°10'0 0.3
2017-Apr-17 22:54N 22°18' E 114°09'2 0.2
2017-Apr-17 12:54N 22°18' E 114°12'2 1.1
2017-Apr-17 10:40N 22°18' E 114°09'0 2.4
2017-Apr-17 10:29N 22°17' E 114°10'0 0.2
2017-Apr-17 09:06N 22°18' E 114°09'0 0.7
2017-Apr-17 08:31N 22°17' E 114°10'0 1.2
2017-Apr-17 08:30N 22°17' E 114°10'1 0.7
2017-Apr-17 07:15N 22°18' E 114°09'1 2.4
2017-Apr-17 06:51N 22°17' E 114°10'1 0.8
2017-Apr-17 05:17N 22°17' E 114°11'2 1.3
2017-Apr-17 03:50N 22°18' E 114°09'0 0.2
2017-Apr-17 01:54N 22°18' E 114°09'0 0.2
2017-Apr-17 00:06N 22°18' E 114°09'1 1.4
2017-Apr-16 23:41N 22°17' E 114°10'0 1.5
2017-Apr-16 23:30N 22°17' E 114°10'2 2.9
2017-Apr-16 22:54N 22°19' E 114°09'2 5.1
2017-Apr-16 22:30N 22°18' E 114°11'0 0.0
2017-Apr-16 13:50N 22°18' E 114°11'2 0.7
2017-Apr-16 10:37N 22°18' E 114°09'1 5.8
2017-Apr-16 10:25N 22°17' E 114°10'1 0.7
2017-Apr-16 09:10N 22°18' E 114°09'1 2.7
2017-Apr-16 08:49N 22°17' E 114°10'0 1.3
2017-Apr-16 08:30N 22°17' E 114°10'1 0.5
2017-Apr-16 06:59N 22°18' E 114°09'1 0.5
2017-Apr-16 04:57N 22°17' E 114°10'1 1.1
2017-Apr-16 03:48N 22°18' E 114°09'0 0.1
2017-Apr-16 01:53N 22°18' E 114°09'0 0.1
2017-Apr-16 00:05N 22°18' E 114°09'  

Dump ship's entire track history